x

8761927 - New Canal, La (nwcl1) Weather Station

4:48pm - Sat 28th Feb 2015 All times are CST. -6 hours from GMT.

  • Wind
    8mph, 13mph gusts
  • Air Temp 57°f
  • Sea Pressure 1026.8mb
  • 8761927 - New Canal, La
  • 8761927 - New Canal, La

More Historic Weather Station data

Upgrade to MSW Pro to gain access to the past 30 days of data for over 8000 Wavebouys and Weather Stations around the globe.

Join Pro

Comparision Forecast

View Surf forecast
   
Sat 02/28 4:48pm 8 13 mph 1026.8mb 57f
4:42pm 13 16 mph 1026.8mb 58f
4:36pm 13 15 mph 1026.8mb 58f
4:30pm 5 10 mph 1026.9mb 58f
4:24pm 5 11 mph 1026.9mb 59f
4:18pm 8 14 mph 1026.7mb 59f
4:12pm 6 16 mph 1026.7mb 58f
4:06pm 9 13 mph 1026.7mb 58f
4:00pm 1 6 mph 1026.7mb 59f
3:54pm 1 6 mph 1026.7mb 59f
3:48pm 2 6 mph 1026.7mb 59f
3:42pm 6 17 mph 1026.6mb 58f
3:36pm 9 15 mph 1026.7mb 58f
3:30pm 8 14 mph 1026.7mb 58f
3:24pm 5 13 mph 1026.7mb 59f
3:18pm 2 8 mph 1026.8mb 59f
3:12pm 2 11 mph - -
3:06pm 3 11 mph 1026.6mb 59f
3:00pm 2 8 mph 1026.6mb 60f
2:54pm 1 5 mph 1026.7mb 60f
2:48pm 2 7 mph 1026.6mb 59f
2:42pm 2 11 mph 1026.7mb 60f
2:36pm 5 13 mph 1026.7mb 59f
2:30pm 7 15 mph 1026.7mb 59f
2:24pm 5 9 mph 1026.7mb 59f
2:18pm 2 8 mph 1026.7mb 59f
2:12pm 7 14 mph 1026.7mb 59f
2:06pm 5 13 mph 1026.7mb 59f
2:00pm 6 16 mph 1026.7mb 59f
1:54pm 2 9 mph 1026.8mb 58f
1:48pm 10 18 mph 1026.9mb 58f
1:42pm 3 14 mph 1027mb -
1:36pm 2 8 mph 1027.1mb 59f
1:30pm 6 10 mph 1027.2mb 58f
1:24pm 7 11 mph 1027.4mb 57f
1:18pm 8 14 mph 1027.5mb 58f
1:12pm 9 15 mph 1027.6mb 57f
1:06pm 9 22 mph 1027.7mb 57f
1:00pm 5 15 mph 1027.9mb 58f
12:54pm 2 9 mph 1028mb 57f
12:48pm 7 16 mph 1028mb 56f
12:42pm 13 18 mph 1028.1mb 56f
12:36pm 8 17 mph 1028.2mb 57f
12:30pm 9 18 mph 1028.2mb 56f
12:24pm 11 18 mph 1028.2mb 56f
12:18pm 10 20 mph - -
12:00pm 5 18 mph 1028.5mb 57f
11:54am 3 14 mph 1028.6mb 56f
11:48am 5 13 mph 1028.7mb 57f
11:42am 7 18 mph 1028.7mb 56f
11:36am 3 14 mph 1028.6mb 57f
11:30am 8 15 mph 1028.7mb 56f
11:24am 7 14 mph 1028.9mb 56f
11:18am 15 21 mph 1028.9mb 54f
11:12am 14 21 mph 1029mb 55f
11:06am 11 21 mph 1029.1mb 56f
11:00am 9 16 mph 1029.1mb 55f
10:54am 7 14 mph 1029.1mb 56f
10:48am 6 11 mph 1029.2mb 55f
10:42am 5 13 mph 1029.5mb 55f
10:36am 8 11 mph 1029.5mb 54f
10:30am 3 9 mph 1029.5mb 55f
10:24am 2 8 mph 1029.6mb 53f
10:18am 1 5 mph 1029.6mb 53f
10:12am 6 13 mph 1029.8mb 52f
10:06am 3 13 mph 1029.9mb 51f
10:00am 3 9 mph 1029.8mb 51f
9:54am 6 13 mph 1029.8mb 51f
9:48am 8 15 mph 1029.8mb 49f
9:42am 5 13 mph 1029.9mb 49f
9:36am 14 16 mph 1030mb 46f
9:30am 16 17 mph 1030mb 46f
9:24am 16 18 mph 1030.2mb 45f
9:18am 16 20 mph 1030.2mb 45f
9:12am 15 18 mph 1030.3mb 45f
9:06am 17 20 mph 1030.2mb 44f
9:00am 17 22 mph 1030.2mb 44f
8:54am 16 18 mph 1030.3mb 44f
8:48am 20 22 mph 1030.2mb 43f
8:42am 18 21 mph 1030.2mb 43f
8:36am 20 22 mph 1030.2mb 43f
8:30am 20 22 mph 1030.2mb 42f
8:06am 21 22 mph 1030mb 42f
8:00am 20 23 mph 1029.9mb 42f
7:54am 22 24 mph 1029.7mb 42f
7:48am 21 24 mph 1029.7mb 42f
7:42am 21 23 mph 1029.7mb 42f
7:36am 21 23 mph 1029.7mb 42f
7:30am 21 24 mph 1029.8mb 42f
7:24am 21 23 mph 1029.9mb 42f
7:18am 20 22 mph 1030mb 42f
7:12am 20 23 mph 1029.9mb 42f
7:06am 21 23 mph 1029.8mb 42f
7:00am 21 23 mph 1029.7mb 42f
6:54am 21 23 mph 1029.7mb 42f
6:48am 20 23 mph 1029.6mb 42f
6:42am 18 21 mph 1029.7mb 42f
6:36am 20 23 mph 1029.4mb 42f
6:30am 18 21 mph 1029.5mb 43f
6:24am 20 22 mph 1029.6mb 43f
6:18am 20 23 mph 1029.5mb 43f
6:12am 20 23 mph 1029.4mb -
6:06am 18 22 mph 1029.4mb 43f
6:00am 18 21 mph 1029.3mb 43f
5:54am 17 21 mph 1029.4mb 43f
5:48am 17 20 mph 1029.4mb 43f
5:42am 20 22 mph 1029.3mb 43f
5:36am 18 22 mph 1029.2mb 43f
5:30am 20 23 mph 1029mb 43f
5:24am 18 23 mph 1029mb 43f
5:18am 20 22 mph 1028.9mb 43f
5:12am 18 21 mph 1028.8mb 43f
5:06am 18 22 mph 1028.9mb 43f
5:00am 18 22 mph 1029.1mb 44f
4:54am 20 21 mph 1028.9mb 44f
4:48am 20 24 mph 1028.9mb 44f
4:42am 18 23 mph 1028.9mb 44f
4:36am 18 21 mph 1028.9mb 44f
4:30am 18 22 mph 1028.8mb 44f
4:24am 17 20 mph 1028.8mb 44f
4:18am 17 21 mph 1028.8mb 44f
4:12am 17 21 mph 1028.7mb 44f
4:06am 18 21 mph 1028.6mb 44f
4:00am 18 21 mph 1028.6mb 44f
3:54am 18 22 mph 1028.6mb 44f
3:48am 18 22 mph 1028.5mb 45f
3:42am 20 22 mph 1028.4mb 44f
3:36am 18 21 mph 1028.5mb 45f
3:30am 18 22 mph 1028.5mb 45f
3:24am 17 18 mph 1028.5mb 45f
3:18am 18 21 mph 1028.4mb 45f
3:12am 16 21 mph 1028.5mb 45f
3:06am 18 21 mph 1028.4mb 45f
3:00am 20 21 mph 1028.3mb 45f
2:54am 20 22 mph 1028.4mb 45f
2:48am 20 22 mph 1028.5mb 45f
2:42am 20 22 mph 1028.5mb 45f
2:36am 18 22 mph 1028.5mb 45f
2:30am 17 21 mph 1028.6mb 45f
2:24am 18 21 mph 1028.6mb 45f
2:18am 17 20 mph 1028.7mb -
2:12am 17 21 mph 1028.8mb 45f
2:06am 18 22 mph 1028.8mb 45f
2:00am 17 22 mph 1028.7mb 45f
1:54am 18 21 mph 1028.9mb 45f
1:48am 18 21 mph - -
1:42am 17 20 mph 1029.2mb 45f
1:36am 17 20 mph 1029.2mb 45f
1:30am 18 22 mph 1029.3mb 45f
1:24am 18 23 mph 1029.3mb 46f
1:18am 18 21 mph 1029.3mb 46f
1:12am 20 22 mph 1029.2mb 46f
1:06am 17 20 mph 1029.2mb 46f
1:00am 17 18 mph 1029.1mb 46f
12:36am 16 17 mph 1029.2mb 46f
12:30am 16 18 mph 1029.1mb 46f
12:06am 18 21 mph 1029.2mb 46f
Fri 02/27 11:42pm 17 20 mph 1029.5mb 47f
11:36pm 17 21 mph 1029.6mb 47f
11:30pm 17 21 mph 1029.6mb 47f
11:24pm 20 22 mph 1029.4mb 47f
11:18pm 21 23 mph 1029.4mb 47f
11:12pm 18 21 mph 1029.5mb 47f
11:06pm 20 22 mph 1029.4mb 47f
11:00pm 17 22 mph 1029.3mb 48f
10:54pm 17 22 mph 1029.3mb 48f
10:48pm 20 21 mph 1029.2mb 48f
10:42pm 17 21 mph 1029.3mb 48f
10:36pm 18 21 mph 1029.3mb 48f
10:30pm 18 21 mph 1029.3mb 48f
10:24pm 17 20 mph 1029.4mb 48f
10:18pm 17 20 mph 1029.4mb 48f
10:12pm 18 21 mph 1029.3mb 48f
10:06pm 18 21 mph 1029.4mb 48f
9:48pm 18 22 mph 1029.5mb 48f
9:42pm 16 18 mph 1029.4mb 48f
9:36pm 17 21 mph 1029.4mb 48f
9:30pm 16 18 mph 1029.4mb 48f
9:24pm 14 16 mph 1029.4mb 48f
9:18pm 14 17 mph 1029.4mb 48f
9:12pm 15 17 mph 1029.4mb 48f
9:06pm 13 15 mph 1029.5mb 48f
9:00pm 15 18 mph - -
8:54pm 15 16 mph 1029.4mb 47f
8:48pm 15 17 mph 1029.3mb 48f
8:42pm 16 18 mph 1029.3mb 48f
8:36pm 16 20 mph 1029.2mb 48f
8:30pm 15 18 mph 1029.1mb 48f
8:24pm 14 17 mph 1029mb 48f
8:18pm 14 17 mph 1028.9mb 48f
8:12pm 15 17 mph 1028.8mb 47f
8:06pm 14 18 mph 1028.6mb 48f
8:00pm 17 21 mph 1028.5mb 48f
7:42pm 17 20 mph 1028.4mb 48f
7:36pm 16 20 mph 1028.3mb 48f
7:30pm 16 20 mph 1028.2mb 48f
7:24pm 18 21 mph 1028mb 48f
7:18pm 16 20 mph 1027.9mb 49f
7:12pm 18 22 mph 1027.7mb 49f
7:06pm 14 20 mph 1027.7mb 49f
7:00pm 17 21 mph 1027.5mb 49f
6:54pm 18 22 mph - -
6:48pm 18 21 mph 1027.4mb 49f
6:42pm 18 22 mph 1027.2mb 49f
6:36pm 18 22 mph 1027.2mb 50f
6:30pm 15 18 mph 1027.3mb 50f
6:24pm 17 20 mph 1027.2mb 50f
6:18pm 16 21 mph 1027.2mb 50f
6:12pm 15 20 mph 1027.1mb 50f
6:06pm 15 20 mph 1027mb 50f
6:00pm 15 18 mph 1026.8mb 50f
5:54pm 17 20 mph 1026.7mb 51f
5:48pm 15 17 mph 1026.7mb 51f
5:42pm 13 15 mph 1026.7mb -
5:36pm 11 14 mph 1026.7mb 51f
5:30pm 11 14 mph 1026.6mb 50f
5:24pm 13 15 mph 1026.5mb 50f
5:18pm 13 15 mph 1026.5mb 50f
5:12pm 13 14 mph 1026.5mb 50f
5:06pm 13 14 mph 1026.6mb 50f
5:00pm 9 13 mph 1026.7mb 50f
4:54pm 10 13 mph 1026.7mb 50f
4:48pm 10 13 mph 1026.8mb 50f
4:42pm 10 13 mph 1026.9mb 50f
4:36pm 10 13 mph 1026.8mb 50f
4:30pm 9 11 mph 1026.9mb 50f
4:24pm 10 11 mph 1026.8mb 49f
4:18pm 10 13 mph 1026.8mb 49f
4:12pm 9 11 mph 1026.8mb 49f
4:06pm 9 11 mph 1026.9mb 49f
4:00pm 9 11 mph 1026.9mb 49f
3:54pm 8 11 mph 1026.9mb 49f
3:48pm 3 11 mph - -
3:42pm 7 11 mph 1026.8mb 49f
3:24pm 1 3 mph 1026.8mb 49f
3:18pm 2 7 mph 1026.8mb 49f
3:12pm 2 5 mph 1026.7mb 49f
3:06pm 2 6 mph 1026.7mb 48f
3:00pm 3 7 mph 1026.8mb 48f
2:54pm 2 7 mph 1026.8mb 48f
2:48pm 2 6 mph 1026.9mb 48f
2:42pm 3 6 mph 1026.9mb 48f
2:36pm 2 5 mph 1026.9mb 48f
2:30pm 3 7 mph 1027mb 48f
2:24pm 2 5 mph 1027.1mb 47f
2:18pm 3 5 mph 1027.1mb 47f
2:12pm 3 6 mph 1027.1mb 47f
2:06pm 3 5 mph 1027.2mb 47f
2:00pm 5 6 mph 1027.3mb 46f
1:54pm 3 5 mph 1027.3mb 46f
1:48pm 5 6 mph 1027.4mb 46f
1:42pm 5 7 mph 1027.4mb 46f
1:36pm 6
mph
1027.5mb 46f
1:30pm 5 6 mph 1027.6mb 46f
1:24pm 6 7 mph 1027.7mb 46f
1:18pm 7 8 mph 1027.8mb 46f
1:12pm 6 8 mph 1027.8mb 46f
1:06pm 6 8 mph 1027.9mb 45f
1:00pm 8 9 mph 1027.9mb 45f
12:54pm 8
mph
1028mb 45f
12:48pm 8 9 mph 1028.1mb 45f
12:42pm 8 11 mph 1028.1mb 45f
12:36pm 8 9 mph 1028.2mb 44f
12:30pm 9 10 mph 1028.3mb 44f
12:24pm 9 13 mph 1028.4mb 44f
12:18pm 9 10 mph 1028.4mb -
12:12pm 8 10 mph 1028.6mb 44f
12:06pm 9 11 mph 1028.7mb 44f
12:00pm 10 13 mph 1028.7mb 43f
11:54am 13 14 mph 1028.7mb 43f
11:48am 13 14 mph 1028.9mb 43f
11:42am 13 14 mph 1029.1mb 43f
11:36am 11 14 mph 1029.3mb 43f
11:30am 11 13 mph 1029.4mb 43f
11:24am 14 15 mph 1029.5mb 42f
11:18am 10 11 mph 1029.6mb -
11:12am 14 16 mph 1029.6mb 42f
11:06am 13 14 mph 1029.7mb 42f
11:00am 13 15 mph 1029.8mb 42f
10:54am 10 11 mph 1029.8mb 42f
10:48am 11 14 mph 1029.8mb 42f
10:42am 13 14 mph 1029.8mb 42f
10:36am 13 17 mph 1029.8mb 42f
10:30am 14 16 mph 1029.8mb 41f
10:24am 14 16 mph 1030mb 41f
10:18am 16 18 mph - -
10:12am 15 18 mph 1029.9mb 41f
10:06am 16 20 mph 1029.8mb 40f
10:00am 17 21 mph 1029.7mb 40f
9:54am 16 20 mph 1029.7mb 41f
9:48am 18 23 mph 1029.6mb 40f
9:42am 18 21 mph 1029.5mb 40f
9:36am 17 21 mph 1029.5mb 40f
9:30am 18 22 mph 1029.5mb 40f
9:24am 18 22 mph 1029.4mb 39f
9:18am 18 22 mph 1029.4mb -
9:12am 18 22 mph 1029.4mb 40f
9:06am 18 22 mph 1029.5mb 39f
9:00am 20 22 mph 1029.4mb 39f
8:54am 21 23 mph 1029.4mb 39f
8:48am 21 25 mph 1029.3mb 39f
8:42am 18 23 mph 1029.4mb 38f
8:18am 21 25 mph 1029.2mb -
8:12am 22 24 mph 1029.2mb 38f
8:06am 23 29 mph 1029.1mb 38f
8:00am 24 29 mph 1028.9mb 38f
7:54am 24 28 mph 1028.8mb 38f
7:48am 23 28 mph 1028.8mb 38f
7:42am 22 28 mph 1028.9mb 38f
7:36am 24 28 mph 1028.8mb 38f
7:30am 24 28 mph 1028.9mb 38f
7:24am 24 28 mph 1028.9mb 38f
7:18am 23 28 mph 1029mb 38f
7:12am 23 28 mph 1029.1mb 38f
7:06am 22 28 mph 1029.2mb 38f
7:00am 23 26 mph 1029.2mb 38f
6:54am 23 26 mph 1029.2mb 38f
6:48am 22 25 mph 1029.1mb 38f
6:42am 24 29 mph 1029mb 38f
6:36am 23 26 mph 1028.9mb 38f
6:30am 22 26 mph 1028.9mb 38f
6:24am 23 26 mph 1028.7mb 38f
6:18am 23 28 mph 1028.8mb 38f
6:12am 22 25 mph 1028.6mb 38f
6:06am 24 28 mph 1028.3mb 38f
6:00am 24 26 mph 1028mb 38f
5:54am 23 26 mph 1028mb 38f
5:48am 23 26 mph 1028.2mb 38f
5:42am 21 25 mph 1028.3mb 38f
5:36am 23 26 mph 1028.3mb 38f
5:30am 23 28 mph 1028.1mb -
5:24am 23 28 mph 1027.8mb 38f
5:18am 23 28 mph 1027.9mb 38f
5:12am 24 26 mph 1027.8mb 38f
5:06am 21 25 mph 1027.5mb 38f
5:00am 22 28 mph 1027.3mb 38f
4:54am 23 26 mph 1027.2mb 38f
4:48am 22 26 mph 1027.1mb 38f
4:42am 21 25 mph 1027.3mb 38f
4:36am 22 24 mph 1027.4mb 38f
4:30am 20 23 mph 1027.3mb 38f
4:24am 22 24 mph 1027mb 37f
4:18am 23 26 mph 1026.9mb 37f
4:12am 22 25 mph 1026.9mb 38f
4:06am 23 28 mph 1026.9mb 37f
4:00am 22 25 mph 1027mb 38f
3:54am 23 26 mph 1027.1mb 38f
3:48am 21 24 mph 1027.1mb 38f
3:42am 21 25 mph 1027.1mb 38f
3:36am 20 23 mph 1027.2mb 38f
3:30am 22 24 mph 1027.1mb 38f
3:24am 20 23 mph 1027.2mb 38f
3:18am 22 24 mph 1027.2mb 38f
3:12am 17 21 mph 1027.4mb 38f
3:06am 17 22 mph 1027.4mb 38f
3:00am 16 18 mph 1027.4mb 38f
2:54am 16 18 mph 1027.3mb 38f
2:48am 16 21 mph 1027.4mb 39f
2:42am 17 21 mph 1027.3mb 38f
2:36am 16 21 mph 1027.3mb 38f
2:30am 16 20 mph 1027.2mb 38f
2:24am 18 22 mph 1027.1mb 38f
2:18am 20 22 mph 1027mb 39f
2:12am 17 23 mph 1027.1mb 38f
2:06am 17 21 mph 1027mb 38f
2:00am 17 22 mph 1026.9mb -
1:54am 18 23 mph 1026.8mb 38f
1:48am 18 22 mph 1026.7mb 38f
1:42am 17 21 mph 1026.7mb -
1:36am 20 24 mph 1026.7mb 38f
1:30am 17 22 mph 1026.6mb 39f
1:24am 21 24 mph 1026.5mb 39f
1:18am 20 24 mph 1026.5mb 39f
1:12am 21 25 mph 1026.4mb 39f
1:06am 20 24 mph 1026.3mb 40f
1:00am 21 26 mph 1026.2mb 39f
12:54am 18 25 mph 1026.1mb 40f
12:48am 21 25 mph 1025.9mb 40f
12:42am 21 24 mph 1025.8mb 40f
12:36am 20 23 mph 1025.7mb 41f
12:18am 21 24 mph 1025.3mb 41f
12:12am 18 23 mph 1025.4mb 42f
Thu 02/26 11:54pm 21 25 mph 1025.1mb 42f
11:48pm 22 25 mph 1025mb 42f
11:42pm 21 25 mph 1024.9mb 42f
11:36pm 20 26 mph 1024.9mb 43f
11:30pm 20 25 mph - -
11:24pm 21 25 mph 1024.8mb 43f
11:18pm 22 25 mph 1024.7mb 44f
11:12pm 21 26 mph 1024.7mb 44f
11:06pm 22 26 mph 1024.6mb 44f
11:00pm 22 24 mph 1024.7mb 44f
10:54pm 21 24 mph 1024.7mb 44f
10:48pm 18 23 mph 1024.7mb 45f
10:42pm 21 25 mph 1024.7mb 44f
10:36pm 20 24 mph 1024.8mb 45f
10:30pm 20 23 mph 1024.8mb 45f
10:24pm 23 28 mph 1024.8mb 45f
10:18pm 22 28 mph 1024.8mb 45f
10:12pm 21 25 mph 1024.8mb 46f
10:06pm 20 24 mph 1024.8mb 46f
10:00pm 23 28 mph 1024.6mb 46f
9:54pm 22 26 mph 1024.7mb 46f
9:48pm 22 28 mph 1024.6mb 46f
9:42pm 23 26 mph 1024.4mb 46f
9:36pm 24 28 mph 1024.3mb 47f
9:30pm 22 26 mph 1024.3mb 47f
9:24pm 22 25 mph 1024.2mb 47f
9:18pm 22 25 mph 1024.1mb 48f
9:12pm 22 25 mph 1024mb 48f
9:06pm 20 23 mph 1023.9mb 48f
9:00pm 21 24 mph 1023.7mb 48f
8:54pm 22 26 mph 1023.5mb 48f
8:48pm 22 26 mph 1023.3mb 49f
8:42pm 23 29 mph 1023.3mb 49f
8:36pm 20 24 mph 1023.2mb 49f
8:30pm 17 22 mph 1023.1mb 49f
8:24pm 18 23 mph 1023mb 49f
8:18pm 18 23 mph 1023mb -
8:12pm 20 24 mph 1023mb 49f
8:06pm 20 23 mph 1022.8mb 49f
8:00pm 17 22 mph 1022.7mb 49f
7:54pm 16 21 mph 1022.6mb 49f
7:48pm 11 14 mph 1022.6mb 49f
7:42pm 11 13 mph 1022.4mb 49f
7:36pm 11 13 mph 1022.2mb 49f
7:30pm 10 13 mph 1022.2mb 49f
7:24pm 11 14 mph 1022mb 49f
7:18pm 14 17 mph 1021.9mb -
7:12pm 16 17 mph 1021.8mb 49f
7:06pm 15 17 mph 1021.7mb 49f
7:00pm 15 17 mph 1021.6mb 49f
6:54pm 15 18 mph 1021.5mb 49f
6:48pm 14 18 mph 1021.4mb -
6:42pm 16 20 mph 1021.3mb 49f
6:36pm 18 21 mph 1021.2mb 49f
6:30pm 14 17 mph 1021.2mb 49f
6:24pm 18 22 mph 1021.2mb 49f
6:18pm 17 20 mph 1021.2mb 49f
6:12pm 17 20 mph 1021.1mb 49f
6:06pm 17 20 mph 1021mb 49f
6:00pm 17 21 mph 1020.9mb 49f
5:54pm 17 21 mph 1020.8mb 49f
5:48pm 17 21 mph 1020.7mb 49f
5:42pm 18 22 mph 1020.6mb 49f
5:36pm 17 22 mph 1020.6mb 49f
5:30pm 20 22 mph 1020.5mb 48f
5:24pm 17 20 mph 1020.5mb 48f
5:18pm 17 20 mph 1020.4mb 48f
5:12pm 17 21 mph 1020.3mb 48f
5:06pm 15 18 mph 1020.3mb 48f
5:00pm 17 20 mph 1020.3mb 48f
4:54pm 14 18 mph 1020.2mb 48f
4:48pm 14 16 mph 1020mb 48f
4:42pm 15 20 mph 1020mb 47f
4:36pm 14 18 mph 1019.8mb 47f
4:30pm 14 17 mph 1019.9mb 47f
4:24pm 15 18 mph 1019.7mb 47f
4:18pm 15 20 mph 1019.7mb -
4:12pm 13 15 mph 1019.7mb 46f
4:06pm 14 17 mph 1019.6mb 46f
4:00pm 14 16 mph 1019.5mb 46f
3:54pm 16 18 mph 1019.5mb 46f
3:48pm 14 18 mph 1019.5mb 46f
3:42pm 15 18 mph 1019.4mb 46f
3:36pm 16 18 mph 1019.5mb 45f
3:30pm 16 21 mph 1019.4mb 45f
3:24pm 15 18 mph 1019.4mb 45f
3:18pm 14 16 mph 1019.3mb 44f
3:12pm 13 15 mph 1019.3mb 44f
3:06pm 14 16 mph 1019.3mb 44f
3:00pm 14 17 mph 1019.4mb 44f
2:54pm 15 18 mph 1019.4mb 44f
2:48pm 14 17 mph 1019.3mb 43f
2:42pm 14 20 mph 1019.3mb 43f
2:36pm 15 18 mph 1019.4mb 43f
2:30pm 16 20 mph 1019.5mb 43f
2:24pm 14 16 mph 1019.5mb 43f
2:18pm 11 16 mph 1019.5mb -
2:12pm 14 16 mph 1019.4mb 43f
2:06pm 15 17 mph 1019.5mb 42f
2:00pm 16 20 mph 1019.4mb 43f
1:54pm 15 20 mph 1019.4mb 43f
1:48pm 16 18 mph 1019.3mb 42f
1:42pm 13 17 mph 1019.4mb 42f
1:36pm 16 22 mph 1019.3mb 42f
1:30pm 16 20 mph 1019.3mb 42f
1:24pm 16 22 mph 1019.3mb 42f
1:18pm 17 22 mph - -
1:12pm 16 21 mph 1019.1mb 42f
1:06pm 16 21 mph 1019.1mb 42f
1:00pm 17 22 mph 1019.1mb 42f
12:54pm 15 18 mph 1019.2mb 42f
12:48pm 14 18 mph 1019.2mb 43f
12:42pm 16 20 mph 1019.1mb 42f
12:36pm 15 18 mph 1019.2mb 42f
12:30pm 14 18 mph 1019.1mb 42f
12:24pm 15 20 mph 1019.2mb 42f
12:18pm 14 20 mph 1019.2mb 42f
12:12pm 14 18 mph 1019.3mb 41f
12:06pm 17 22 mph 1019.4mb 41f
12:00pm 17 20 mph 1019.4mb 41f
11:54am 16 20 mph 1019.4mb 40f
11:48am 16 21 mph 1019.4mb 41f
11:42am 15 20 mph 1019.3mb 41f
11:36am 14 18 mph 1019.2mb 41f
11:30am 15 18 mph 1019.2mb 41f
11:24am 14 15 mph 1019.2mb 40f
11:18am 14 17 mph - -
11:12am 13 14 mph 1019.2mb 40f
11:06am 11 15 mph 1019.1mb 40f
11:00am 11 15 mph 1019.1mb 40f
10:54am 11 16 mph 1019.2mb 40f
10:48am 14 17 mph 1019.3mb 40f
10:42am 13 16 mph 1019.3mb 40f
10:36am 14 18 mph 1019.3mb 40f
10:30am 11 17 mph 1019.3mb 40f
10:24am 15 20 mph 1019.3mb 40f
10:18am 13 17 mph 1019.2mb 40f
10:12am 15 20 mph 1019.1mb 40f
10:06am 10 13 mph 1019.1mb 40f
10:00am 6 14 mph 1019.1mb 40f
9:54am 11 16 mph 1019.1mb 40f
9:48am 7 14 mph 1019.1mb 40f
9:42am 14 17 mph 1018.9mb 40f
9:36am 10 14 mph 1018.8mb 40f
9:30am 9 14 mph 1018.7mb 40f
9:24am 14 17 mph 1018.7mb 40f
9:18am 13 17 mph 1018.5mb 40f
9:12am 13 16 mph 1018.5mb 40f
9:06am 13 17 mph 1018.4mb 39f
9:00am 13 16 mph 1018.2mb 40f
8:54am 13 16 mph 1018.2mb 39f
8:48am 15 17 mph 1018mb 40f
8:42am 14 17 mph 1018mb 40f
8:36am 14 16 mph 1017.9mb 40f
8:30am 14 17 mph 1017.9mb 40f
8:24am 13 16 mph 1017.7mb 40f
8:18am 13 18 mph 1017.5mb -
8:12am 14 17 mph 1017.4mb 39f
8:06am 14 17 mph 1017.2mb 39f
8:00am 14 17 mph 1017.1mb 40f
7:54am 14 16 mph 1016.7mb 39f
7:48am 15 20 mph 1016.5mb 39f
7:42am 14 17 mph 1016.4mb 39f
7:36am 16 21 mph 1016.2mb 40f
7:30am 13 20 mph 1016mb 39f
7:24am 15 18 mph 1015.8mb 40f
7:18am 13 16 mph 1015.6mb 39f
7:12am 16 25 mph 1015.5mb 40f
7:06am 17 21 mph 1015.4mb 39f
7:00am 16 23 mph 1015.2mb 40f
6:54am 14 18 mph 1015.1mb 40f
6:48am 17 21 mph 1015mb 39f
6:42am 17 22 mph 1014.9mb 39f
6:36am 18 23 mph 1014.7mb 39f
6:30am 15 20 mph 1014.7mb 39f
6:24am 17 22 mph 1014.6mb 40f
6:18am 15 20 mph 1014.5mb 40f
6:12am 16 20 mph 1014.6mb 40f
6:06am 13 20 mph 1014.7mb 39f
6:00am 15 22 mph 1014.4mb 40f
5:54am 15 21 mph 1014.2mb 40f
5:48am 14 17 mph 1014.2mb 40f
5:42am 17 21 mph 1014mb 39f
5:36am 17 22 mph 1013.9mb 40f
5:30am 15 21 mph 1013.8mb 40f
5:24am 14 16 mph 1013.6mb 40f
5:18am 15 18 mph - -
5:12am 14 17 mph 1013.3mb 40f
5:06am 17 21 mph 1013.3mb 40f
5:00am 17 21 mph 1013.3mb 40f
4:54am 18 21 mph 1013.3mb 40f
4:48am 18 22 mph 1013.1mb 40f
4:42am 20 23 mph 1013mb 40f
4:36am 16 23 mph 1013mb 40f
4:30am 18 23 mph 1013mb 40f
4:24am 16 22 mph 1012.9mb 40f
4:18am 14 23 mph - -
4:12am 16 22 mph 1012.9mb 40f
4:06am 18 22 mph 1012.8mb 40f
4:00am 16 21 mph 1012.8mb 40f
3:54am 15 18 mph 1012.8mb 40f
3:48am 20 23 mph 1012.7mb 40f
3:42am 20 24 mph 1012.6mb 40f
3:36am 18 23 mph 1012.6mb 40f
3:30am 18 22 mph 1012.5mb 40f
3:24am 18 22 mph 1012.6mb 40f
3:18am 16 21 mph 1012.6mb 40f
3:12am 20 22 mph 1012.6mb 40f
3:06am 16 22 mph 1012.6mb 40f
3:00am 11 22 mph 1012.6mb 40f
2:54am 14 21 mph 1012.6mb 40f
2:48am 13 22 mph 1012.5mb 40f
2:42am 11 20 mph 1012.5mb 40f
2:36am 9 20 mph 1012.5mb 40f
2:30am 6 16 mph 1012.6mb 40f
2:24am 3 10 mph 1012.6mb 40f
2:18am 3 8 mph 1012.6mb 41f
2:12am 15 18 mph 1012.6mb 40f
2:06am 3 13 mph 1012.8mb 40f
2:00am 2 7 mph 1012.8mb 40f
1:54am 13 20 mph 1012.6mb 40f
1:48am 7 17 mph 1012.7mb 40f
1:42am 9 17 mph 1012.6mb 40f
1:36am 6 15 mph 1012.6mb 40f
1:30am 5 11 mph 1012.7mb 40f
1:24am 6 13 mph 1012.8mb 40f
1:18am 8 14 mph 1012.8mb 40f
1:12am 7 13 mph 1012.8mb 41f
1:06am 14 18 mph 1012.7mb 41f
1:00am 11 21 mph 1012.8mb 41f
12:54am 6 20 mph 1012.9mb 41f
12:48am 13 17 mph 1012.8mb 41f
12:42am 8 17 mph 1012.7mb -
12:18am 6 17 mph 1012.3mb 42f
12:12am 6 13 mph 1012.1mb 42f
Wed 02/25 11:54pm 2 7 mph 1011.9mb 42f
11:48pm 5 16 mph 1011.8mb 42f
11:42pm 6 17 mph 1011.8mb 42f
11:36pm 5 11 mph 1011.8mb 42f
11:30pm 3 8 mph 1011.7mb 42f
11:24pm 5 9 mph 1011.7mb 43f
11:18pm 3 11 mph 1011.5mb 42f
11:12pm 5 10 mph 1011.5mb 42f
11:06pm 8 15 mph 1011.4mb 43f
11:00pm 11 14 mph 1011.3mb 42f
10:54pm 7 15 mph 1011.3mb 43f
10:48pm 6 14 mph 1011.2mb 42f
10:42pm 5 10 mph 1011.2mb 43f
10:36pm 3 11 mph 1011.2mb 43f
10:30pm 6 11 mph 1011.2mb 42f
10:24pm 3 15 mph 1011.3mb 43f
10:18pm 5 11 mph 1011.3mb 43f
10:12pm 7 14 mph 1011.2mb 43f
10:06pm 5 11 mph 1011.1mb 43f
10:00pm 7 13 mph 1011mb 44f
9:42pm 3 14 mph 1010.7mb 44f
9:36pm 2 10 mph 1010.6mb 44f
9:30pm 6 11 mph 1010.4mb 44f
9:24pm 7 14 mph 1010.2mb 44f
9:18pm 8 15 mph 1010mb 44f
9:12pm 8 14 mph 1009.9mb 44f
9:06pm 7 13 mph 1009.8mb 44f
9:00pm 2 13 mph 1009.7mb 44f
8:54pm 6 13 mph 1009.6mb 44f
8:48pm 13 16 mph 1009.5mb 44f
8:42pm 6 13 mph 1009.5mb 44f
8:36pm 11 16 mph 1009.3mb 44f
8:30pm 8 16 mph 1009.3mb 44f
8:24pm 13 16 mph 1009.1mb 44f
8:18pm 11 18 mph 1009.1mb 44f
8:12pm 15 21 mph 1008.9mb 44f
8:06pm 8 17 mph 1009mb 44f
8:00pm 9 21 mph 1008.9mb 44f
7:54pm 7 18 mph 1009mb 44f
7:48pm 10 20 mph 1008.9mb 44f
7:42pm 13 22 mph 1008.8mb 45f
7:36pm 14 20 mph 1008.6mb 44f
7:30pm 17 23 mph 1008.4mb 44f
7:24pm 14 21 mph 1008.3mb 44f
7:18pm 14 21 mph 1008.3mb 45f
7:12pm 9 21 mph 1008.4mb 45f
7:06pm 5 17 mph 1008.3mb 44f
7:00pm 10 18 mph 1008mb 45f
6:54pm 5 14 mph 1007.9mb 45f
6:48pm 3 15 mph 1007.9mb 45f
6:42pm 3 13 mph 1007.8mb 44f
6:36pm 6 14 mph 1007.7mb 44f
6:30pm 6 17 mph 1007.6mb 45f
6:24pm 5 14 mph 1007.6mb 45f
6:18pm 5 13 mph 1007.5mb 44f
6:12pm 8 17 mph 1007.3mb 44f
6:06pm 3 10 mph 1007.3mb 44f
6:00pm 2 8 mph 1007.3mb 44f
5:54pm 3 16 mph 1007.2mb 44f
5:48pm 3 11 mph 1007.1mb 44f
5:42pm 3 11 mph 1007.1mb 44f
5:36pm 2 8 mph 1007mb 45f
5:30pm 2 9 mph - -
5:24pm 3 14 mph 1006.6mb 45f
5:18pm 13 20 mph 1006.3mb 44f
5:12pm 13 17 mph 1006.1mb 44f
5:06pm 13 17 mph 1006.2mb 44f
5:00pm 14 20 mph 1006.2mb 44f
4:54pm 11 18 mph 1006.2mb 44f
4:48pm 15 18 mph 1006.1mb 44f
4:42pm 10 18 mph 1006.2mb 44f
4:36pm 9 17 mph 1006.2mb 44f
4:30pm 8 17 mph 1006.3mb 44f
4:24pm 6 16 mph 1006.3mb 44f
4:18pm 6 20 mph 1006.4mb 44f
4:12pm 5 23 mph 1006.4mb 44f
4:06pm 3 11 mph 1006.5mb 44f
4:00pm 6 20 mph 1006.3mb 44f
3:54pm 8 22 mph 1006.3mb 44f
3:48pm 15 22 mph 1006mb 44f
3:42pm 18 23 mph 1005.8mb 44f
3:36pm 17 22 mph 1005.7mb 44f
3:30pm 16 22 mph 1005.7mb 44f
3:24pm 17 23 mph 1005.8mb 44f
3:18pm 7 20 mph 1006mb 44f
3:12pm 6 17 mph 1006.1mb 44f
3:06pm 3 13 mph 1005.9mb 44f
3:00pm 3 14 mph 1006mb 44f
2:54pm 6 18 mph 1006.1mb 45f
2:48pm 8 17 mph 1005.9mb 45f
2:42pm 8 20 mph 1005.6mb 45f
2:36pm 8 20 mph 1005.5mb 45f
2:30pm 15 22 mph 1005.3mb 45f
2:24pm 17 21 mph 1005.1mb 45f
2:18pm 16 21 mph 1005.2mb 45f
2:12pm 16 21 mph 1005.5mb 46f
2:06pm 16 20 mph 1005.1mb 46f
2:00pm 16 18 mph 1005mb -
1:54pm 14 16 mph 1005.2mb 47f
1:48pm 14 16 mph 1005.2mb 48f
1:42pm 14
mph
1005.3mb 48f
1:36pm 2 6 mph 1006.2mb 48f
1:30pm 10 15 mph 1005.7mb 48f
1:24pm 14 21 mph 1005.5mb 48f
1:18pm 24 28 mph 1004.3mb 48f
1:12pm 13 18 mph 1005.2mb 48f
1:06pm 26 29 mph 1003.8mb 48f
1:00pm 3 9 mph 1005.5mb 48f
12:54pm 22 25 mph 1004.9mb 48f
12:48pm 9 22 mph 1006.2mb 48f
12:42pm 8 15 mph 1006.5mb 48f
12:36pm 3 11 mph 1006.3mb 48f
12:30pm 18 25 mph 1005.2mb 48f
12:24pm 3 9 mph 1006.7mb 48f
12:18pm 13 22 mph 1006mb 48f
12:12pm 13 21 mph 1006.4mb 47f
12:06pm 11 16 mph 1007.2mb 47f
12:00pm 6 13 mph 1007.3mb 47f
11:54am 6 17 mph 1007.3mb 47f
11:48am 6 11 mph 1007.6mb 47f
11:42am 10 16 mph 1007.8mb 47f
11:36am 8 14 mph 1008.3mb 47f
11:30am 7 14 mph 1008.5mb 47f
11:24am 7 14 mph 1009mb 47f
11:18am 8 14 mph 1009.2mb 47f
11:12am 9 16 mph 1009mb 46f
11:06am 6 13 mph 1009mb 46f
11:00am 7 17 mph 1009.3mb 46f
10:54am 9 16 mph 1009.4mb 46f
10:48am 6 15 mph 1009.7mb 46f
10:42am 5 14 mph 1010mb 45f
10:36am 5 10 mph 1009.8mb 45f
10:30am 2 8 mph 1010.2mb 45f
10:24am 2 7 mph 1010.4mb 45f
10:18am 6 11 mph 1010.6mb 44f
10:12am 6 10 mph 1010.3mb 44f
10:06am 6 10 mph 1010.8mb 44f
10:00am 3 8 mph 1010.7mb 44f
9:54am 1 8 mph 1011.4mb 44f
9:48am 5 11 mph 1011.2mb 43f
9:42am 2 6 mph 1011.4mb 44f
9:36am 6 14 mph 1010.9mb 43f
9:30am 9 13 mph 1011.3mb 43f
9:24am 11 17 mph 1011.1mb 43f
9:18am 11 16 mph 1011.2mb 44f
9:12am 13 16 mph 1011.6mb 44f
9:06am 14 18 mph 1011.9mb 43f
9:00am 15 17 mph 1012.1mb 43f
8:54am 15 17 mph 1012.2mb 43f
8:48am 11 13 mph 1012.9mb 43f
8:42am 5 7 mph 1012.9mb 43f
8:36am 1 5 mph 1012.5mb 43f
8:30am 16 20 mph 1011mb 44f
8:24am 16 20 mph 1011.4mb 43f
8:18am 17 22 mph 1011.6mb 43f
8:12am 20 23 mph 1011.5mb 43f
8:06am 18 22 mph 1011.8mb 44f
8:00am 22 23 mph 1011.5mb 43f
7:54am 18 22 mph 1012mb 43f
7:48am 20 22 mph 1012.3mb 44f
7:42am 21 22 mph 1012.3mb 43f
7:36am 18 21 mph 1012.5mb 44f
7:30am 18 20 mph 1012.8mb 43f
7:24am 16 20 mph 1013.1mb 43f
7:18am 16 20 mph 1013.1mb 44f
7:12am 16 18 mph 1013.2mb 44f
7:06am 18 21 mph 1012.7mb 44f
7:00am 20 21 mph - -
6:54am 18 21 mph 1012.8mb 44f
6:48am 18 21 mph 1012.7mb 44f
6:42am 17 21 mph 1012.9mb 44f
6:36am 16 20 mph 1013.2mb 44f
6:30am 16 18 mph 1013.5mb 44f
6:24am 17 21 mph 1013.1mb 44f
6:18am 17 20 mph 1013.1mb 44f
6:12am 17 21 mph 1013.3mb 44f
6:06am 17 21 mph 1013.1mb 44f
6:00am 14 16 mph 1013.3mb 44f
5:54am 17 20 mph 1012.7mb 44f
5:48am 16 18 mph 1012.8mb 44f
5:42am 17 20 mph 1012.7mb 44f
5:36am 16 17 mph 1013mb 44f
5:30am 15 16 mph 1013.2mb 44f
5:24am 16 17 mph 1013.1mb 44f
5:18am 16 20 mph 1013mb 44f
5:12am 16 18 mph 1013.2mb 44f
5:06am 15 16 mph 1013.4mb 44f
5:00am 11 14 mph 1013.6mb 45f
4:54am 11 14 mph 1013.7mb 45f
4:48am 11 14 mph 1014mb 45f
4:42am 8 11 mph 1014.2mb 44f
4:36am 2 6 mph 1014.2mb 44f
4:30am 9 13 mph 1014.2mb 44f
4:24am 9 11 mph 1014.2mb 45f
4:18am 9 11 mph 1014.2mb 44f
4:12am 9 10 mph 1014.4mb 45f
4:06am 9 10 mph 1014.3mb 44f
4:00am 9 11 mph 1014.1mb 44f
3:54am 9 11 mph 1014.2mb 44f
3:48am 8 10 mph 1014.4mb 44f
3:42am 9 10 mph 1014.5mb 44f
3:36am 8 9 mph 1014.5mb 44f
3:30am 6 8 mph 1014.6mb 44f
3:24am 8 10 mph 1014.6mb 44f
3:18am 6 8 mph 1014.9mb -
3:12am 5 9 mph 1014.8mb 44f
3:06am 2 6 mph 1014.8mb 43f
3:00am 1 2 mph 1014.9mb 43f
2:54am 2 5 mph 1014.8mb 43f
2:48am 3 5 mph 1014.8mb -
2:42am 2 6 mph 1014.8mb 44f
2:36am 1 3 mph 1014.9mb 44f
2:30am 2 6 mph 1014.9mb 43f
2:24am 3 7 mph 1014.9mb 43f
2:18am 5 8 mph 1014.8mb 43f
2:12am 6 8 mph 1014.9mb 44f
2:06am 2 7 mph 1015mb 44f
2:00am 16 17 mph 1014.3mb 44f
1:54am 13 14 mph 1015mb 44f
1:48am 10 13 mph 1015.3mb 43f
1:42am 9 10 mph 1015.5mb 43f
1:36am 9 10 mph 1015.6mb 44f
1:30am 9 10 mph 1015.9mb 44f
1:24am 7 9 mph 1016.2mb 44f
1:18am 9 11 mph 1016.2mb 44f
1:12am 9 11 mph 1016mb 44f
1:06am 9 10 mph 1016.3mb 44f
1:00am 9 10 mph 1016.3mb 44f
12:54am 10 13 mph 1016.2mb 45f
12:48am 9 13 mph 1016.5mb 45f
12:42am 10 13 mph 1016.5mb 45f
12:36am 11 14 mph 1016.4mb 45f
12:30am 11 14 mph 1016.4mb 45f
12:24am 10 13 mph 1016.5mb 45f
12:18am 9 13 mph 1016.6mb 46f
12:12am 10 13 mph 1016.9mb 45f
12:06am 7 8 mph 1017.1mb 46f
12:00am 6 8 mph 1016.9mb 45f